Terminal Aerodrome Forecast
Issued by NWS

Home | Current Version | Previous Version | Text Only | Print | Product List | Glossary On
Versions: 1 2 3 4 5 6 7 8 9 10 11
000
FTUS43 KJKL 290500
TAFSJS
TAF
KSJS 290534Z 2906/3006 VRB03KT 1SM BR VCSH OVC003
     FM291500 VRB03KT 5SM BR OVC010
     FM291900 VRB03KT P6SM OVC015=

USA.gov is the U.S. government's official web portal to all federal, state and local government web resources and services.